Flugmeteorologie

METAR


Letzte Änderung: 30 May 2024 06:50:00
937
SAHU41 HASM 300700
METAR LHSM 300645Z AUTO VRB01KT CAVOK 19/13 Q1008 NOSIG

TAF


Letzte Änderung: 30 May 2024 05:25:00
934
FCHU99 LHSM 300500
TAF LHSM 300515Z 3006/3015 VRB03KT CAVOK
BECMG 3008/3010 19007KT SCT040
PROB40 TEMPO 3012/3015 VRB15G25KT 4000 SHRA TSRA SCT040CB
SCT060